createdAt,value
2022-12-28T00:01:24.114Z,7.41
2022-12-28T00:03:51.888Z,7.28
2022-12-28T00:06:19.415Z,7.60
2022-12-28T00:08:46.283Z,7.59
2022-12-28T00:11:25.334Z,7.04
2022-12-28T00:13:59.417Z,7.36
2022-12-28T00:16:36.989Z,7.28
2022-12-28T00:19:07.174Z,7.83
2022-12-28T00:21:33.948Z,7.38
2022-12-28T00:24:01.453Z,7.59
2022-12-28T00:26:30.299Z,7.68
2022-12-28T00:29:03.700Z,7.22
2022-12-28T00:31:31.428Z,7.20
2022-12-28T00:33:57.949Z,7.30
2022-12-28T00:37:11.290Z,7.37
2022-12-28T00:39:11.837Z,7.75
2022-12-28T00:41:38.583Z,7.45
2022-12-28T00:44:05.212Z,7.43
2022-12-28T00:46:31.705Z,7.77
2022-12-28T00:48:58.169Z,7.78
2022-12-28T00:51:24.600Z,7.72
2022-12-28T00:53:51.094Z,7.45
2022-12-28T00:56:20.411Z,8.09
2022-12-28T00:58:47.350Z,7.77
2022-12-28T01:01:21.363Z,7.59
2022-12-28T01:03:48.450Z,7.85
2022-12-28T01:06:17.851Z,8.12
2022-12-28T01:08:44.636Z,8.00
2022-12-28T01:11:20.970Z,8.02
2022-12-28T01:13:48.348Z,7.82
2022-12-28T01:16:16.039Z,8.07
2022-12-28T01:18:43.303Z,7.81
2022-12-28T01:21:12.061Z,7.78
2022-12-28T01:23:38.927Z,7.52
2022-12-28T01:26:05.736Z,7.32
2022-12-28T01:28:32.456Z,7.25
2022-12-28T01:31:04.527Z,6.78
2022-12-28T01:33:31.210Z,7.27
2022-12-28T01:35:57.829Z,7.23
2022-12-28T01:38:24.290Z,6.94
2022-12-28T01:40:51.003Z,7.00
2022-12-28T01:43:29.833Z,6.80
2022-12-28T01:45:57.529Z,6.70
2022-12-28T01:48:24.809Z,7.04
2022-12-28T01:50:52.256Z,7.03
2022-12-28T01:53:19.991Z,6.99
2022-12-28T01:55:47.835Z,6.91
2022-12-28T01:58:24.882Z,7.20
2022-12-28T02:00:51.475Z,6.97
2022-12-28T02:03:27.936Z,6.81
2022-12-28T02:05:56.616Z,7.30
2022-12-28T02:08:28.607Z,6.93
2022-12-28T02:10:55.230Z,7.08
2022-12-28T02:13:23.013Z,7.28
2022-12-28T02:15:49.879Z,7.07
2022-12-28T02:18:17.729Z,7.20
2022-12-28T02:20:56.595Z,7.16
2022-12-28T02:23:42.576Z,7.41
2022-12-28T02:26:46.067Z,7.24
2022-12-28T02:29:43.272Z,7.35
2022-12-28T02:32:11.552Z,7.28
2022-12-28T02:34:46.984Z,7.38
2022-12-28T02:37:18.383Z,7.43
2022-12-28T02:39:50.369Z,7.78
2022-12-28T02:42:17.669Z,7.50
2022-12-28T02:45:02.859Z,7.42
2022-12-28T02:47:47.813Z,7.68
2022-12-28T02:50:16.105Z,7.76
2022-12-28T02:53:07.238Z,8.06
2022-12-28T02:56:07.987Z,7.78
2022-12-28T02:59:03.807Z,7.88
2022-12-28T03:01:36.416Z,7.93
2022-12-28T03:04:23.880Z,7.92
2022-12-28T03:07:39.528Z,8.08
2022-12-28T03:10:17.417Z,7.93
2022-12-28T03:13:33.433Z,8.09
2022-12-28T03:16:05.296Z,8.39
2022-12-28T03:18:52.044Z,7.85
2022-12-28T03:21:37.685Z,7.88
2022-12-28T03:24:24.027Z,8.08
2022-12-28T03:27:10.641Z,7.97
2022-12-28T03:30:12.930Z,7.99
2022-12-28T03:32:39.481Z,8.22
2022-12-28T03:35:06.327Z,8.29
2022-12-28T03:38:00.761Z,7.97
2022-12-28T03:40:27.762Z,8.39
2022-12-28T03:43:14.013Z,8.39
2022-12-28T03:45:55.261Z,8.26
2022-12-28T03:48:22.831Z,8.01
2022-12-28T03:50:49.730Z,8.11
2022-12-28T03:53:23.044Z,8.18
2022-12-28T03:55:49.524Z,8.30
2022-12-28T03:58:16.031Z,8.22
2022-12-28T04:00:42.573Z,8.14
2022-12-28T04:03:09.037Z,8.46
2022-12-28T04:05:35.540Z,8.39
2022-12-28T04:08:02.029Z,8.25
2022-12-28T04:10:28.515Z,8.02
2022-12-28T04:12:56.767Z,8.41
2022-12-28T04:15:23.320Z,8.47
2022-12-28T04:17:49.799Z,8.54
2022-12-28T04:20:16.373Z,8.41
2022-12-28T04:22:43.187Z,8.20
2022-12-28T04:25:09.795Z,8.44
2022-12-28T04:27:36.397Z,8.28
2022-12-28T04:30:03.004Z,8.52
2022-12-28T04:32:29.495Z,8.52
2022-12-28T04:34:55.976Z,8.24
2022-12-28T04:37:22.548Z,8.01
2022-12-28T04:39:56.022Z,8.39
2022-12-28T04:42:25.485Z,8.41
2022-12-28T04:44:51.965Z,8.46
2022-12-28T04:47:19.154Z,8.90
2022-12-28T04:49:45.645Z,8.78
2022-12-28T04:52:12.452Z,8.47
2022-12-28T04:54:39.082Z,8.67
2022-12-28T04:57:06.625Z,8.90
2022-12-28T04:59:33.089Z,8.66
2022-12-28T05:01:59.658Z,9.02
2022-12-28T05:04:26.533Z,8.58
2022-12-28T05:06:53.025Z,8.79
2022-12-28T05:09:19.606Z,8.75
2022-12-28T05:11:47.043Z,8.94
2022-12-28T05:14:13.682Z,8.80
2022-12-28T05:16:40.497Z,9.10
2022-12-28T05:19:07.011Z,8.89
2022-12-28T05:21:33.787Z,8.77
2022-12-28T05:24:00.250Z,8.92
2022-12-28T05:26:29.062Z,8.63
2022-12-28T05:28:56.769Z,8.95
2022-12-28T05:31:23.594Z,9.17
2022-12-28T05:33:50.594Z,8.70
2022-12-28T05:36:19.679Z,8.87
2022-12-28T05:38:47.459Z,8.43
2022-12-28T05:41:19.586Z,8.28
2022-12-28T05:43:46.692Z,8.46
2022-12-28T05:46:19.442Z,8.19
2022-12-28T05:48:46.878Z,8.41
2022-12-28T05:51:16.119Z,8.30
2022-12-28T05:53:43.003Z,8.51
2022-12-28T05:56:16.831Z,8.48
2022-12-28T05:58:44.350Z,8.51
2022-12-28T06:01:12.768Z,8.35
2022-12-28T06:03:39.697Z,8.45
2022-12-28T06:06:10.389Z,8.61
2022-12-28T06:08:37.482Z,8.56
2022-12-28T06:11:06.730Z,8.60
2022-12-28T06:13:33.751Z,8.46
2022-12-28T06:16:09.227Z,8.72
2022-12-28T06:18:36.591Z,8.56
2022-12-28T06:21:09.064Z,8.47
2022-12-28T06:23:35.809Z,8.45
2022-12-28T06:26:04.491Z,8.17
2022-12-28T06:28:31.005Z,8.23
2022-12-28T06:31:05.174Z,8.39
2022-12-28T06:33:31.712Z,8.17
2022-12-28T06:35:58.443Z,8.50
2022-12-28T06:38:27.344Z,8.51
2022-12-28T06:41:12.775Z,8.78
2022-12-28T06:43:41.775Z,8.55
2022-12-28T06:46:09.040Z,8.59
2022-12-28T06:48:36.405Z,8.55
2022-12-28T06:51:08.562Z,8.59
2022-12-28T06:53:37.382Z,8.50
2022-12-28T06:56:09.914Z,8.56
2022-12-28T06:58:36.417Z,8.42
2022-12-28T07:01:13.940Z,8.57
2022-12-28T07:03:40.963Z,8.56
2022-12-28T07:06:07.642Z,8.25
2022-12-28T07:08:34.191Z,8.39
2022-12-28T07:11:09.812Z,8.43
2022-12-28T07:13:36.655Z,8.69
2022-12-28T07:16:08.406Z,8.40
2022-12-28T07:18:35.121Z,8.65
2022-12-28T07:21:04.082Z,8.45
2022-12-28T07:23:31.504Z,8.51
2022-12-28T07:26:03.768Z,8.34
2022-12-28T07:28:30.503Z,8.50
2022-12-28T07:30:57.117Z,8.46
2022-12-28T07:33:23.621Z,8.46
2022-12-28T07:35:50.101Z,8.37
2022-12-28T07:38:21.163Z,8.30
2022-12-28T07:40:48.085Z,8.42
2022-12-28T07:43:14.585Z,8.53
2022-12-28T07:45:41.100Z,8.91
2022-12-28T07:48:07.592Z,8.43
2022-12-28T07:50:37.743Z,8.42
2022-12-28T07:53:04.882Z,8.46
2022-12-28T07:55:32.025Z,8.48
2022-12-28T07:57:58.627Z,8.55
2022-12-28T08:00:25.117Z,8.49
2022-12-28T08:02:55.602Z,8.87
2022-12-28T08:05:22.061Z,8.61
2022-12-28T08:07:48.483Z,8.41
2022-12-28T08:10:15.373Z,8.71
2022-12-28T08:12:41.811Z,8.89
2022-12-28T08:15:09.049Z,8.73
2022-12-28T08:17:37.007Z,8.62
2022-12-28T08:20:06.791Z,8.87
2022-12-28T08:22:33.884Z,8.49
2022-12-28T08:25:00.332Z,8.23
2022-12-28T08:27:26.776Z,9.03
2022-12-28T08:29:53.540Z,8.95
2022-12-28T08:32:20.011Z,9.32
2022-12-28T08:34:46.534Z,9.28
2022-12-28T08:37:13.037Z,9.26
2022-12-28T08:39:39.527Z,9.03
2022-12-28T08:42:06.027Z,8.91
2022-12-28T08:44:32.519Z,8.79
2022-12-28T08:46:59.029Z,8.64
2022-12-28T08:49:25.584Z,9.09
2022-12-28T08:51:52.095Z,9.45
2022-12-28T08:54:18.641Z,8.90
2022-12-28T08:56:46.567Z,9.13
2022-12-28T08:59:15.299Z,9.27
2022-12-28T09:01:44.532Z,8.99
2022-12-28T09:04:14.064Z,9.18
2022-12-28T09:06:40.665Z,9.47
2022-12-28T09:09:08.834Z,9.18
2022-12-28T09:11:36.305Z,9.08
2022-12-28T09:14:04.033Z,9.30
2022-12-28T09:16:30.633Z,9.15
2022-12-28T09:18:59.159Z,9.32
2022-12-28T09:21:28.871Z,9.35
2022-12-28T09:23:55.849Z,9.48
2022-12-28T09:26:24.999Z,9.21
2022-12-28T09:28:53.776Z,9.30
2022-12-28T09:31:21.542Z,9.62
2022-12-28T09:36:49.865Z,9.25
2022-12-28T09:39:19.245Z,9.62
2022-12-28T09:41:56.516Z,9.35
2022-12-28T09:44:41.826Z,9.69
2022-12-28T09:47:13.865Z,9.59
2022-12-28T09:49:46.650Z,9.66
2022-12-28T09:52:50.946Z,9.52
2022-12-28T09:55:18.944Z,9.63
2022-12-28T09:57:51.049Z,9.54
2022-12-28T10:00:39.628Z,9.55
2022-12-28T10:03:14.039Z,9.85
2022-12-28T10:05:40.555Z,9.63
2022-12-28T10:08:10.978Z,9.93
2022-12-28T10:10:43.973Z,10.12
2022-12-28T10:16:20.874Z,10.06
2022-12-28T10:18:48.569Z,9.99
2022-12-28T10:21:20.250Z,10.03
2022-12-28T10:26:40.451Z,9.99
2022-12-28T10:29:17.138Z,10.00
2022-12-28T10:31:43.636Z,10.00
2022-12-28T10:34:22.749Z,10.03
2022-12-28T10:36:49.655Z,10.01
2022-12-28T10:39:28.262Z,10.67
2022-12-28T10:41:56.407Z,10.40
2022-12-28T10:44:39.369Z,10.22
2022-12-28T10:47:26.480Z,10.37
2022-12-28T10:50:18.881Z,10.68
2022-12-28T10:52:39.641Z,10.51
2022-12-28T10:55:33.199Z,10.94
2022-12-28T10:58:33.391Z,11.08
2022-12-28T11:01:13.293Z,10.49
2022-12-28T11:04:05.186Z,10.55
2022-12-28T11:06:35.477Z,10.68
2022-12-28T11:09:05.145Z,10.67
2022-12-28T11:11:31.714Z,10.52
2022-12-28T11:14:30.773Z,10.86
2022-12-28T11:16:57.796Z,10.85
2022-12-28T11:19:25.404Z,11.36
2022-12-28T11:21:52.480Z,10.89
2022-12-28T11:24:19.642Z,10.50
2022-12-28T11:26:48.329Z,10.96
2022-12-28T11:29:17.349Z,11.01
2022-12-28T11:32:00.307Z,10.69
2022-12-28T11:34:28.452Z,10.86
2022-12-28T11:36:55.377Z,10.88
2022-12-28T11:39:24.909Z,11.21
2022-12-28T11:42:36.688Z,11.24
2022-12-28T11:44:41.848Z,11.05
2022-12-28T11:47:17.324Z,11.00
2022-12-28T11:49:45.712Z,11.33
2022-12-28T11:52:15.142Z,11.52
2022-12-28T11:54:52.364Z,11.49
2022-12-28T11:57:38.895Z,10.89
2022-12-28T12:00:23.011Z,11.33
2022-12-28T12:02:53.005Z,11.15
2022-12-28T12:05:37.868Z,11.34
2022-12-28T12:08:10.180Z,12.01
2022-12-28T12:10:37.103Z,12.17
2022-12-28T12:13:26.406Z,13.15
2022-12-28T12:16:05.262Z,12.38
2022-12-28T12:18:56.061Z,13.27
2022-12-28T12:21:40.336Z,12.48
2022-12-28T12:24:27.922Z,12.22
2022-12-28T12:27:01.562Z,12.09
2022-12-28T12:29:40.126Z,12.09
2022-12-28T12:32:15.398Z,12.25
2022-12-28T12:34:47.416Z,11.75
2022-12-28T12:37:28.867Z,11.99
2022-12-28T12:40:20.835Z,11.75
2022-12-28T12:42:56.426Z,11.30
2022-12-28T12:45:36.406Z,11.22
2022-12-28T12:48:14.647Z,11.62
2022-12-28T12:51:00.156Z,11.32
2022-12-28T12:53:29.669Z,11.84
2022-12-28T12:56:02.042Z,11.64
2022-12-28T12:58:43.806Z,11.49
2022-12-28T13:01:25.651Z,11.37
2022-12-28T13:03:53.560Z,11.79
2022-12-28T13:06:23.031Z,11.33
2022-12-28T13:09:00.422Z,11.25
2022-12-28T13:11:30.897Z,11.47
2022-12-28T13:13:57.401Z,11.42
2022-12-28T13:16:26.071Z,11.74
2022-12-28T13:18:57.933Z,11.37
2022-12-28T13:21:27.484Z,11.45
2022-12-28T13:23:54.857Z,11.25
2022-12-28T13:26:30.606Z,11.24
2022-12-28T13:28:59.682Z,10.98
2022-12-28T13:31:37.966Z,10.69
2022-12-28T13:34:16.118Z,10.82
2022-12-28T13:36:56.415Z,10.51
2022-12-28T13:39:24.937Z,10.59
2022-12-28T13:41:57.342Z,10.40
2022-12-28T13:44:29.821Z,10.77
2022-12-28T13:47:01.964Z,10.84
2022-12-28T13:49:32.649Z,10.52
2022-12-28T13:51:59.135Z,10.21
2022-12-28T13:54:26.154Z,10.40
2022-12-28T13:57:14.442Z,10.46
2022-12-28T13:59:41.073Z,10.32
2022-12-28T14:02:07.875Z,10.61
2022-12-28T14:04:52.170Z,10.33
2022-12-28T14:07:19.861Z,10.56
2022-12-28T14:09:47.165Z,10.48
2022-12-28T14:12:14.653Z,10.59
2022-12-28T14:14:42.019Z,10.59
2022-12-28T14:17:08.968Z,10.54
2022-12-28T14:19:36.047Z,10.47
2022-12-28T14:22:02.769Z,10.86
2022-12-28T14:24:29.216Z,10.49
2022-12-28T14:26:57.961Z,10.82
2022-12-28T14:29:30.822Z,11.17
2022-12-28T14:31:58.392Z,11.25
2022-12-28T14:34:28.960Z,11.26
2022-12-28T14:36:56.273Z,10.95
2022-12-28T14:39:27.174Z,10.87
2022-12-28T14:41:54.561Z,11.00
2022-12-28T14:44:31.129Z,11.02
2022-12-28T14:46:58.042Z,10.78
2022-12-28T14:49:30.654Z,10.90
2022-12-28T14:52:09.286Z,11.49
2022-12-28T14:54:50.192Z,11.14
2022-12-28T14:57:28.770Z,11.18
2022-12-28T15:00:02.226Z,10.99
2022-12-28T15:02:41.056Z,10.87
2022-12-28T15:05:32.643Z,10.94
2022-12-28T15:07:59.965Z,11.07
2022-12-28T15:10:26.445Z,10.82
2022-12-28T15:12:54.052Z,11.23
2022-12-28T15:15:21.704Z,11.21
2022-12-28T15:17:48.280Z,11.08
2022-12-28T15:20:15.298Z,10.73
2022-12-28T15:22:41.802Z,10.75
2022-12-28T15:25:08.803Z,10.61
2022-12-28T15:27:35.487Z,10.68
2022-12-28T15:30:06.327Z,11.12
2022-12-28T15:32:33.470Z,10.52
2022-12-28T15:34:59.925Z,10.86
2022-12-28T15:37:26.423Z,10.63
2022-12-28T15:39:53.099Z,10.87
2022-12-28T15:42:19.590Z,11.25
2022-12-28T15:44:48.448Z,11.16
2022-12-28T15:47:14.965Z,10.90
2022-12-28T15:49:41.448Z,10.77
2022-12-28T15:52:07.911Z,10.58
2022-12-28T15:54:34.592Z,10.73
2022-12-28T15:57:01.312Z,10.88
2022-12-28T15:59:28.099Z,10.61
2022-12-28T16:01:54.988Z,10.77
2022-12-28T16:04:21.703Z,10.78
2022-12-28T16:06:48.213Z,10.84
2022-12-28T16:09:14.706Z,10.88
2022-12-28T16:11:41.798Z,10.84
2022-12-28T16:14:14.164Z,11.00
2022-12-28T16:16:41.583Z,10.69
2022-12-28T16:19:08.942Z,10.52
2022-12-28T16:21:36.115Z,10.84
2022-12-28T16:24:02.624Z,10.74
2022-12-28T16:26:29.062Z,10.51
2022-12-28T16:28:55.748Z,10.83
2022-12-28T16:31:28.368Z,10.85
2022-12-28T16:33:57.641Z,10.68
2022-12-28T16:36:24.391Z,11.08
2022-12-28T16:38:51.492Z,11.15
2022-12-28T16:41:18.134Z,11.00
2022-12-28T16:43:45.430Z,11.01
2022-12-28T16:46:11.983Z,11.06
2022-12-28T16:48:39.715Z,11.19
2022-12-28T16:51:06.473Z,10.70
2022-12-28T16:53:33.548Z,10.85
2022-12-28T16:56:01.294Z,11.25
2022-12-28T16:58:29.253Z,10.78
2022-12-28T17:00:56.761Z,11.13
2022-12-28T17:03:23.689Z,11.15
2022-12-28T17:05:52.343Z,10.98
2022-12-28T17:08:19.312Z,10.63
2022-12-28T17:10:46.021Z,11.00
2022-12-28T17:13:13.218Z,10.74
2022-12-28T17:15:43.056Z,11.21
2022-12-28T17:18:09.888Z,10.88
2022-12-28T17:20:37.378Z,10.99
2022-12-28T17:23:04.662Z,10.86
2022-12-28T17:25:32.057Z,11.17
2022-12-28T17:27:58.890Z,10.93
2022-12-28T17:30:26.487Z,11.48
2022-12-28T17:32:53.424Z,10.84
2022-12-28T17:35:20.271Z,10.98
2022-12-28T17:37:46.761Z,10.99
2022-12-28T17:40:13.242Z,10.68
2022-12-28T17:42:39.709Z,10.82
2022-12-28T17:45:11.485Z,10.75
2022-12-28T17:47:38.524Z,10.42
2022-12-28T17:50:05.508Z,10.55
2022-12-28T17:52:32.092Z,10.54
2022-12-28T17:54:58.564Z,10.39
2022-12-28T17:57:25.016Z,10.14
2022-12-28T17:59:51.480Z,10.20
2022-12-28T18:02:18.223Z,10.07
2022-12-28T18:04:44.886Z,10.07
2022-12-28T18:07:11.428Z,10.11
2022-12-28T18:09:37.945Z,9.99
2022-12-28T18:12:05.014Z,9.90
2022-12-28T18:14:31.518Z,10.07
2022-12-28T18:16:58.100Z,9.97
2022-12-28T18:19:24.733Z,10.03
2022-12-28T18:21:51.216Z,9.98
2022-12-28T18:24:20.795Z,10.00
2022-12-28T18:26:47.570Z,9.93
2022-12-28T18:29:14.489Z,9.70
2022-12-28T18:31:41.065Z,9.76
2022-12-28T18:34:07.696Z,9.77
2022-12-28T18:36:34.231Z,9.89
2022-12-28T18:39:02.059Z,9.78
2022-12-28T18:41:33.732Z,9.78
2022-12-28T18:44:02.708Z,9.60
2022-12-28T18:46:29.763Z,9.92
2022-12-28T18:48:56.666Z,9.85
2022-12-28T18:51:23.327Z,9.56
2022-12-28T18:53:50.838Z,9.78
2022-12-28T18:56:19.538Z,9.73
2022-12-28T18:58:55.044Z,9.92
2022-12-28T19:04:10.926Z,9.67
2022-12-28T19:06:37.716Z,9.96
2022-12-28T19:09:05.499Z,10.04
2022-12-28T19:11:32.334Z,9.80
2022-12-28T19:13:58.961Z,10.00
2022-12-28T19:16:30.910Z,9.99
2022-12-28T19:18:59.543Z,9.94
2022-12-28T19:21:29.057Z,9.69
2022-12-28T19:23:57.577Z,9.93
2022-12-28T19:26:24.671Z,9.73
2022-12-28T19:28:51.617Z,9.90
2022-12-28T19:31:18.588Z,9.59
2022-12-28T19:33:45.114Z,9.54
2022-12-28T19:36:12.172Z,9.78
2022-12-28T19:38:38.728Z,9.61
2022-12-28T19:41:07.585Z,10.03
2022-12-28T19:43:34.263Z,9.49
2022-12-28T19:46:04.786Z,9.45
2022-12-28T19:48:31.465Z,9.42
2022-12-28T19:50:58.013Z,9.78
2022-12-28T19:53:25.003Z,9.61
2022-12-28T19:55:56.933Z,9.81
2022-12-28T19:58:25.424Z,9.63
2022-12-28T20:00:52.804Z,9.92
2022-12-28T20:03:19.511Z,9.70
2022-12-28T20:05:46.131Z,10.03
2022-12-28T20:08:12.596Z,9.65
2022-12-28T20:10:39.336Z,9.55
2022-12-28T20:13:05.770Z,9.77
2022-12-28T20:15:33.252Z,9.91
2022-12-28T20:17:59.751Z,9.70
2022-12-28T20:20:27.613Z,9.90
2022-12-28T20:22:57.113Z,9.76
2022-12-28T20:25:23.579Z,9.92
2022-12-28T20:27:50.217Z,9.90
2022-12-28T20:30:16.737Z,9.82
2022-12-28T20:32:45.044Z,10.05
2022-12-28T20:35:11.959Z,9.80
2022-12-28T20:37:38.416Z,9.83
2022-12-28T20:40:05.791Z,9.76
2022-12-28T20:42:51.083Z,9.98
2022-12-28T20:45:17.594Z,10.03
2022-12-28T20:47:44.097Z,10.03
2022-12-28T20:50:10.705Z,9.66
2022-12-28T20:52:37.160Z,10.04
2022-12-28T20:55:03.740Z,10.08
2022-12-28T20:57:30.479Z,10.39
2022-12-28T20:59:58.403Z,10.33
2022-12-28T21:02:24.880Z,10.22
2022-12-28T21:04:51.371Z,9.95
2022-12-28T21:07:19.528Z,10.33
2022-12-28T21:09:50.588Z,10.33
2022-12-28T21:12:17.461Z,10.55
2022-12-28T21:14:44.063Z,10.41
2022-12-28T21:17:10.541Z,10.61
2022-12-28T21:19:37.028Z,10.86
2022-12-28T21:22:03.489Z,10.87
2022-12-28T21:24:30.016Z,10.79
2022-12-28T21:26:56.503Z,10.86
2022-12-28T21:29:25.977Z,10.86
2022-12-28T21:31:52.885Z,10.99
2022-12-28T21:34:19.609Z,11.00
2022-12-28T21:36:46.105Z,10.89
2022-12-28T21:39:12.661Z,11.14
2022-12-28T21:41:51.611Z,10.90
2022-12-28T21:44:23.507Z,10.82
2022-12-28T21:46:51.678Z,11.12
2022-12-28T21:49:19.519Z,10.78
2022-12-28T21:51:46.097Z,10.98
2022-12-28T21:54:16.541Z,11.23
2022-12-28T21:56:44.707Z,10.94
2022-12-28T21:59:12.634Z,10.83
2022-12-28T22:01:59.920Z,10.69
2022-12-28T22:04:45.624Z,10.83
2022-12-28T22:07:15.608Z,10.95
2022-12-28T22:10:01.609Z,10.79
2022-12-28T22:12:34.312Z,11.09
2022-12-28T22:15:31.027Z,11.02
2022-12-28T22:17:59.760Z,10.62
2022-12-28T22:20:27.949Z,11.13
2022-12-28T22:22:59.438Z,11.08
2022-12-28T22:25:27.131Z,11.15
2022-12-28T22:27:54.321Z,10.82
2022-12-28T22:30:21.384Z,10.65
2022-12-28T22:32:47.915Z,10.82
2022-12-28T22:35:14.715Z,11.01
2022-12-28T22:37:42.743Z,11.49
2022-12-28T22:40:10.242Z,11.23
2022-12-28T22:42:42.136Z,10.94
2022-12-28T22:45:10.851Z,10.94
2022-12-28T22:47:37.320Z,11.13
2022-12-28T22:50:04.282Z,11.78
2022-12-28T22:52:30.802Z,11.74
2022-12-28T22:54:57.253Z,11.24
2022-12-28T22:57:24.474Z,10.49
2022-12-28T22:59:51.224Z,11.21
2022-12-28T23:02:18.027Z,11.15
2022-12-28T23:04:44.599Z,10.70
2022-12-28T23:07:11.409Z,10.97
2022-12-28T23:09:39.030Z,10.84
2022-12-28T23:12:05.680Z,11.10
2022-12-28T23:14:51.120Z,11.23
2022-12-28T23:17:17.639Z,11.02
2022-12-28T23:20:04.240Z,10.98
2022-12-28T23:22:51.887Z,11.84
2022-12-28T23:25:40.051Z,11.23
2022-12-28T23:28:09.543Z,11.46
2022-12-28T23:30:37.958Z,11.86
2022-12-28T23:33:04.546Z,11.14
2022-12-28T23:35:31.146Z,11.53
2022-12-28T23:37:57.840Z,11.30
2022-12-28T23:40:25.456Z,11.48
2022-12-28T23:42:54.068Z,11.29
2022-12-28T23:45:20.901Z,11.36
2022-12-28T23:47:47.508Z,11.36
2022-12-28T23:50:15.517Z,11.72
2022-12-28T23:52:42.096Z,11.57
2022-12-28T23:55:09.924Z,11.61
2022-12-28T23:57:36.719Z,11.53
